Terminal Aerodrome Forecast
Issued by NWS

Home | Current Version | Previous Version | Text Only | Print | Product List | Glossary On
Versions: 1 2 3 4 5 6 7 8 9 10 11 12 13 14 15 16 17 18
000
FTAK31 PAJN 211100
TAFASI
TAF
PASI 211125Z 2112/2212 11007KT 5SM -RA BR BKN060 OVC080
     FM211500 11012G18KT 5SM -RA BR BKN025 OVC040
     FM211700 12020G30KT 4SM RA BR FEW006 SCT010 OVC020
      WS020/15040KT
     FM212200 13020G32KT 5SM -RA BR SCT010 OVC020 WS020/15045KT
     FM220300 16016G27KT 6SM -SHRA BR SCT020 OVC030 WS020/19035KT
     FM220600 18014KT 6SM -SHRA BR SCT020 OVC035=

USA.gov is the U.S. government's official web portal to all federal, state and local government web resources and services.